Terminal Aerodrome Forecast
Issued by NWS Melbourne, FL

Home | Current Version | Previous Version | Text Only | Print | Product List | Glossary On
Versions: 1 2 3 4 5 6 7 8 9 10 11 12 13 14 15 16 17 18 19 20 21 22 23 24 25
000
FTUS42 KMLB 141100
TAFMCO
TAF
KMCO 141140Z 1412/1512 VRB03KT P6SM SCT250
     FM141400 19004KT P6SM SCT030 BKN250
     FM142000 16008KT P6SM VCTS SCT040CB BKN250
     FM150200 18003KT P6SM SCT040 BKN120=

USA.gov is the U.S. government's official web portal to all federal, state and local government web resources and services.